createdAt,value
2018-09-27T00:01:00.192Z,99.90
2018-09-27T00:03:28.454Z,99.90
2018-09-27T00:05:56.626Z,99.90
2018-09-27T00:08:24.846Z,99.90
2018-09-27T00:10:53.039Z,99.90
2018-09-27T00:13:21.364Z,99.90
2018-09-27T00:15:49.551Z,99.90
2018-09-27T00:18:17.747Z,99.90
2018-09-27T00:20:45.963Z,99.90
2018-09-27T00:23:14.202Z,99.90
2018-09-27T00:25:42.453Z,99.90
2018-09-27T00:28:10.983Z,99.90
2018-09-27T00:30:39.173Z,99.90
2018-09-27T00:33:07.409Z,99.90
2018-09-27T00:35:35.607Z,99.90
2018-09-27T00:38:03.772Z,99.90
2018-09-27T00:40:31.972Z,99.90
2018-09-27T00:43:00.233Z,99.90
2018-09-27T00:45:28.447Z,99.90
2018-09-27T00:47:56.631Z,99.90
2018-09-27T00:50:24.811Z,99.90
2018-09-27T00:52:53.267Z,99.90
2018-09-27T00:55:21.504Z,99.90
2018-09-27T00:57:49.721Z,99.90
2018-09-27T01:00:17.975Z,99.90
2018-09-27T01:02:46.241Z,99.90
2018-09-27T01:05:14.456Z,99.90
2018-09-27T01:07:42.634Z,99.90
2018-09-27T01:10:10.840Z,99.90
2018-09-27T01:12:39.071Z,99.90
2018-09-27T01:15:07.299Z,99.90
2018-09-27T01:17:35.490Z,99.90
2018-09-27T01:20:03.725Z,99.90
2018-09-27T01:22:31.905Z,99.90
2018-09-27T01:25:00.149Z,99.90
2018-09-27T01:27:28.398Z,99.90
2018-09-27T01:29:56.673Z,99.90
2018-09-27T01:32:24.873Z,99.90
2018-09-27T01:34:53.071Z,99.90
2018-09-27T01:37:21.252Z,99.90
2018-09-27T01:39:49.454Z,99.90
2018-09-27T01:42:17.675Z,99.90
2018-09-27T01:44:45.863Z,99.90
2018-09-27T01:47:14.102Z,99.90
2018-09-27T01:49:42.253Z,99.90
2018-09-27T01:52:10.481Z,99.90
2018-09-27T01:54:38.914Z,99.90
2018-09-27T01:57:07.289Z,99.90
2018-09-27T01:59:35.539Z,99.90
2018-09-27T02:02:03.717Z,99.90
2018-09-27T02:04:31.915Z,99.90
2018-09-27T02:07:00.141Z,99.90
2018-09-27T02:09:28.343Z,99.90
2018-09-27T02:16:31.858Z,99.90
2018-09-27T02:19:00.035Z,99.90
2018-09-27T02:21:28.231Z,99.90
2018-09-27T02:23:56.451Z,99.90
2018-09-27T02:26:25.029Z,99.90
2018-09-27T02:28:53.263Z,99.90
2018-09-27T02:31:21.488Z,99.90
2018-09-27T02:33:49.701Z,99.90
2018-09-27T02:36:17.901Z,99.90
2018-09-27T02:38:46.088Z,99.90
2018-09-27T02:41:14.308Z,99.90
2018-09-27T02:43:42.556Z,99.90
2018-09-27T02:46:10.725Z,99.90
2018-09-27T02:48:38.918Z,99.90
2018-09-27T02:51:07.116Z,99.90
2018-09-27T02:53:35.305Z,99.90
2018-09-27T02:56:03.493Z,99.90
2018-09-27T02:58:31.691Z,99.90
2018-09-27T03:00:59.890Z,99.90
2018-09-27T03:03:28.136Z,99.90
2018-09-27T03:05:56.323Z,99.90
2018-09-27T03:08:24.511Z,99.90
2018-09-27T03:10:53.063Z,99.90
2018-09-27T03:13:21.266Z,99.90
2018-09-27T03:15:49.468Z,99.90
2018-09-27T03:18:17.681Z,99.90
2018-09-27T03:20:45.910Z,99.90
2018-09-27T03:23:14.102Z,99.90
2018-09-27T03:25:42.292Z,99.90
2018-09-27T03:28:10.508Z,99.90
2018-09-27T03:30:38.695Z,99.90
2018-09-27T03:33:07.026Z,99.90
2018-09-27T03:35:35.221Z,99.90
2018-09-27T03:38:03.402Z,99.90
2018-09-27T03:40:31.633Z,99.90
2018-09-27T03:42:59.845Z,99.90
2018-09-27T03:45:28.091Z,99.90
2018-09-27T03:47:56.280Z,99.90
2018-09-27T03:50:24.479Z,99.90
2018-09-27T03:52:52.874Z,99.90
2018-09-27T03:55:21.068Z,99.90
2018-09-27T03:57:49.252Z,99.90
2018-09-27T04:04:52.506Z,99.90
2018-09-27T04:07:20.711Z,99.90
2018-09-27T04:09:49.000Z,99.90
2018-09-27T04:12:17.192Z,99.90
2018-09-27T04:14:45.397Z,99.90
2018-09-27T04:17:13.594Z,99.90
2018-09-27T04:19:41.810Z,99.90
2018-09-27T04:22:10.033Z,99.90
2018-09-27T04:24:38.216Z,99.90
2018-09-27T04:27:06.413Z,99.90
2018-09-27T04:29:34.605Z,99.90
2018-09-27T04:32:02.831Z,99.90
2018-09-27T04:34:31.144Z,99.90
2018-09-27T04:36:59.346Z,99.90
2018-09-27T04:39:27.534Z,99.90
2018-09-27T04:41:55.722Z,99.90
2018-09-27T04:44:23.987Z,99.90
2018-09-27T04:46:52.180Z,99.90
2018-09-27T04:49:20.373Z,99.90
2018-09-27T04:51:48.683Z,99.90
2018-09-27T04:54:16.814Z,99.90
2018-09-27T04:56:45.138Z,99.90
2018-09-27T04:59:13.343Z,99.90
2018-09-27T05:01:41.544Z,99.90
2018-09-27T05:04:09.744Z,99.90
2018-09-27T05:06:37.922Z,99.90
2018-09-27T05:09:07.257Z,99.90
2018-09-27T05:11:35.456Z,99.90
2018-09-27T05:14:03.943Z,99.90
2018-09-27T05:16:32.184Z,99.90
2018-09-27T05:19:00.379Z,99.90
2018-09-27T05:21:28.590Z,99.90
2018-09-27T05:23:56.777Z,99.90
2018-09-27T05:26:24.992Z,99.90
2018-09-27T05:28:53.175Z,99.90
2018-09-27T05:31:21.398Z,99.90
2018-09-27T05:33:49.656Z,99.90
2018-09-27T05:36:17.835Z,99.90
2018-09-27T05:38:46.012Z,99.90
2018-09-27T05:41:14.201Z,99.90
2018-09-27T05:43:42.415Z,99.90
2018-09-27T05:46:10.601Z,99.90
2018-09-27T05:48:38.786Z,99.90
2018-09-27T05:51:07.077Z,99.90
2018-09-27T05:53:35.355Z,99.90
2018-09-27T05:56:03.595Z,99.90
2018-09-27T05:58:31.789Z,99.90
2018-09-27T06:00:59.989Z,99.90
2018-09-27T06:03:28.206Z,99.90
2018-09-27T06:05:56.731Z,99.90
2018-09-27T06:08:24.971Z,99.90
2018-09-27T06:10:53.191Z,99.90
2018-09-27T06:13:21.387Z,99.90
2018-09-27T06:15:49.649Z,99.90
2018-09-27T06:18:17.849Z,99.90
2018-09-27T06:20:46.023Z,99.90
2018-09-27T06:23:14.464Z,99.90
2018-09-27T06:25:42.663Z,99.90
2018-09-27T06:28:11.177Z,99.90
2018-09-27T06:30:39.415Z,99.90
2018-09-27T06:33:07.633Z,99.90
2018-09-27T06:35:35.841Z,99.90
2018-09-27T06:38:04.055Z,99.90
2018-09-27T06:40:32.275Z,99.90
2018-09-27T06:43:00.507Z,99.90
2018-09-27T06:45:28.711Z,99.90
2018-09-27T06:47:56.897Z,99.90
2018-09-27T06:50:25.289Z,99.90
2018-09-27T06:52:54.107Z,99.90
2018-09-27T06:55:22.473Z,99.90
2018-09-27T06:57:50.553Z,99.90
2018-09-27T07:00:18.737Z,99.90
2018-09-27T07:02:46.975Z,99.90
2018-09-27T07:05:15.177Z,99.90
2018-09-27T07:07:43.405Z,99.90
2018-09-27T07:10:11.621Z,99.90
2018-09-27T07:12:40.063Z,99.90
2018-09-27T07:15:08.260Z,99.90
2018-09-27T07:17:36.450Z,99.90
2018-09-27T07:20:04.661Z,99.90
2018-09-27T07:22:32.879Z,99.90
2018-09-27T07:25:01.152Z,99.90
2018-09-27T07:27:29.295Z,99.90
2018-09-27T07:29:57.539Z,99.90
2018-09-27T07:32:25.799Z,97.90
2018-09-27T07:34:53.961Z,96.40
2018-09-27T07:37:22.163Z,95.10
2018-09-27T07:39:50.373Z,93.70
2018-09-27T07:42:18.582Z,92.00
2018-09-27T07:44:46.786Z,90.40
2018-09-27T07:47:14.987Z,88.10
2018-09-27T07:49:43.201Z,86.60
2018-09-27T07:52:11.391Z,84.20
2018-09-27T07:54:39.602Z,81.60
2018-09-27T07:57:07.822Z,78.80
2018-09-27T07:59:36.028Z,76.50
2018-09-27T08:02:04.325Z,74.50
2018-09-27T08:04:32.520Z,72.30
2018-09-27T08:07:00.891Z,69.30
2018-09-27T08:09:29.084Z,66.70
2018-09-27T08:11:57.280Z,62.90
2018-09-27T08:14:25.528Z,61.90
2018-09-27T08:16:53.837Z,61.10
2018-09-27T08:19:21.980Z,59.60
2018-09-27T08:21:50.181Z,58.70
2018-09-27T08:24:18.372Z,57.10
2018-09-27T08:26:46.569Z,56.30
2018-09-27T08:29:14.803Z,55.80
2018-09-27T08:31:43.018Z,55.70
2018-09-27T08:34:11.209Z,55.40
2018-09-27T08:36:39.384Z,54.80
2018-09-27T08:39:09.030Z,54.40
2018-09-27T08:41:37.466Z,53.80
2018-09-27T08:44:05.668Z,53.20
2018-09-27T08:46:33.872Z,52.20
2018-09-27T08:49:02.106Z,52.20
2018-09-27T08:51:30.334Z,51.70
2018-09-27T08:53:58.572Z,50.70
2018-09-27T08:56:26.875Z,50.10
2018-09-27T08:58:55.010Z,49.10
2018-09-27T09:01:23.230Z,48.70
2018-09-27T09:03:51.451Z,47.90
2018-09-27T09:06:19.828Z,47.10
2018-09-27T09:08:48.050Z,46.30
2018-09-27T09:11:16.256Z,46.00
2018-09-27T09:13:44.548Z,45.90
2018-09-27T09:16:12.676Z,45.40
2018-09-27T09:18:40.898Z,45.20
2018-09-27T09:21:09.148Z,44.80
2018-09-27T09:23:37.710Z,44.60
2018-09-27T09:26:06.016Z,44.90
2018-09-27T09:28:34.307Z,44.60
2018-09-27T09:31:02.516Z,44.10
2018-09-27T09:33:30.821Z,43.40
2018-09-27T09:35:59.026Z,43.30
2018-09-27T09:38:27.404Z,42.10
2018-09-27T09:40:55.582Z,41.50
2018-09-27T09:43:23.826Z,41.00
2018-09-27T09:45:52.036Z,40.00
2018-09-27T09:48:20.246Z,39.50
2018-09-27T09:50:48.456Z,39.00
2018-09-27T09:53:16.708Z,39.20
2018-09-27T09:55:44.968Z,38.80
2018-09-27T09:58:13.318Z,38.70
2018-09-27T10:00:41.556Z,38.30
2018-09-27T10:03:09.807Z,37.90
2018-09-27T10:05:37.998Z,38.00
2018-09-27T10:08:06.250Z,37.90
2018-09-27T10:10:34.442Z,37.50
2018-09-27T10:13:02.666Z,36.80
2018-09-27T10:15:37.462Z,36.40
2018-09-27T10:18:22.830Z,36.10
2018-09-27T10:20:55.637Z,35.80
2018-09-27T10:23:26.950Z,35.70
2018-09-27T10:25:55.230Z,35.80
2018-09-27T10:28:23.424Z,35.70
2018-09-27T10:30:51.690Z,35.40
2018-09-27T10:33:20.010Z,35.00
2018-09-27T10:35:48.201Z,34.20
2018-09-27T10:38:16.560Z,33.50
2018-09-27T10:40:44.790Z,33.40
2018-09-27T10:43:13.042Z,33.30
2018-09-27T10:45:41.240Z,33.20
2018-09-27T10:48:09.443Z,32.70
2018-09-27T10:50:37.642Z,32.80
2018-09-27T10:53:05.975Z,32.80
2018-09-27T10:55:34.167Z,32.50
2018-09-27T10:58:02.642Z,31.90
2018-09-27T11:00:30.896Z,32.10
2018-09-27T11:02:59.119Z,32.40
2018-09-27T11:05:27.694Z,30.50
2018-09-27T11:07:55.890Z,30.10
2018-09-27T11:10:24.136Z,30.50
2018-09-27T11:12:52.427Z,30.50
2018-09-27T11:15:20.643Z,30.20
2018-09-27T11:17:48.834Z,30.00
2018-09-27T11:20:17.023Z,30.10
2018-09-27T11:22:45.347Z,29.80
2018-09-27T11:25:13.547Z,28.80
2018-09-27T11:27:41.792Z,27.60
2018-09-27T11:30:15.369Z,27.90
2018-09-27T11:32:44.961Z,28.20
2018-09-27T11:35:13.467Z,27.50
2018-09-27T11:37:41.689Z,27.90
2018-09-27T11:40:10.823Z,28.00
2018-09-27T11:42:39.633Z,28.40
2018-09-27T11:45:08.360Z,28.40
2018-09-27T11:47:36.559Z,27.80
2018-09-27T11:50:04.855Z,27.40
2018-09-27T11:52:32.959Z,26.50
2018-09-27T11:55:01.167Z,26.50
2018-09-27T11:57:29.351Z,27.30
2018-09-27T11:59:57.520Z,27.40
2018-09-27T12:02:25.713Z,27.00
2018-09-27T12:04:54.163Z,26.20
2018-09-27T12:07:22.632Z,26.30
2018-09-27T12:09:50.756Z,25.80
2018-09-27T12:12:20.889Z,26.40
2018-09-27T12:14:49.146Z,26.40
2018-09-27T12:17:17.419Z,26.80
2018-09-27T12:19:45.756Z,26.60
2018-09-27T12:22:13.839Z,25.80
2018-09-27T12:24:42.030Z,25.70
2018-09-27T12:27:10.245Z,25.80
2018-09-27T12:29:38.433Z,25.30
2018-09-27T12:32:06.722Z,25.50
2018-09-27T12:34:34.912Z,25.70
2018-09-27T12:37:03.175Z,25.40
2018-09-27T12:39:31.422Z,25.60
2018-09-27T12:41:59.782Z,25.80
2018-09-27T12:44:27.777Z,25.50
2018-09-27T12:46:56.054Z,26.10
2018-09-27T12:49:24.243Z,25.90
2018-09-27T12:51:52.570Z,25.40
2018-09-27T12:54:20.647Z,24.60
2018-09-27T12:56:48.857Z,25.10
2018-09-27T12:59:17.104Z,25.00
2018-09-27T13:01:45.315Z,25.20
2018-09-27T13:04:13.473Z,24.10
2018-09-27T13:06:41.712Z,24.80
2018-09-27T13:09:10.461Z,25.00
2018-09-27T13:11:40.767Z,25.60
2018-09-27T13:14:06.903Z,25.20
2018-09-27T13:16:35.106Z,24.70
2018-09-27T13:19:03.353Z,24.30
2018-09-27T13:21:31.626Z,24.70
2018-09-27T13:23:59.775Z,24.20
2018-09-27T13:26:27.990Z,24.50
2018-09-27T13:28:56.173Z,24.70
2018-09-27T13:31:24.402Z,24.00
2018-09-27T13:33:52.700Z,23.90
2018-09-27T13:36:20.876Z,24.50
2018-09-27T13:38:49.058Z,24.80
2018-09-27T13:41:17.299Z,25.50
2018-09-27T13:43:45.492Z,25.00
2018-09-27T13:46:13.676Z,24.70
2018-09-27T13:48:41.900Z,23.90
2018-09-27T13:51:10.247Z,23.90
2018-09-27T13:53:38.354Z,24.30
2018-09-27T13:56:06.538Z,24.60
2018-09-27T13:58:34.788Z,24.80
2018-09-27T14:01:03.248Z,25.00
2018-09-27T14:03:31.664Z,25.10
2018-09-27T14:05:59.922Z,24.30
2018-09-27T14:08:28.104Z,23.60
2018-09-27T14:10:56.327Z,24.30
2018-09-27T14:13:24.590Z,24.50
2018-09-27T14:15:52.858Z,24.70
2018-09-27T14:18:21.119Z,24.90
2018-09-27T14:20:49.379Z,24.90
2018-09-27T14:23:17.639Z,25.20
2018-09-27T14:25:45.857Z,25.20
2018-09-27T14:28:14.025Z,25.00
2018-09-27T14:30:42.272Z,25.20
2018-09-27T14:33:10.514Z,25.10
2018-09-27T14:35:38.784Z,25.20
2018-09-27T14:38:06.979Z,25.50
2018-09-27T14:40:35.158Z,25.40
2018-09-27T14:43:03.354Z,25.10
2018-09-27T14:45:31.574Z,25.50
2018-09-27T14:48:03.025Z,25.10
2018-09-27T14:50:31.200Z,25.00
2018-09-27T14:52:59.480Z,25.40
2018-09-27T14:55:27.752Z,25.50
2018-09-27T14:57:55.986Z,26.20
2018-09-27T15:00:24.185Z,26.80
2018-09-27T15:02:52.638Z,27.80
2018-09-27T15:05:20.794Z,28.80
2018-09-27T15:07:48.996Z,29.60
2018-09-27T15:10:17.319Z,30.20
2018-09-27T15:12:45.664Z,31.20
2018-09-27T15:15:13.752Z,32.00
2018-09-27T15:17:41.988Z,33.00
2018-09-27T15:20:10.987Z,34.50
2018-09-27T15:22:39.419Z,34.20
2018-09-27T15:25:07.643Z,34.60
2018-09-27T15:27:35.832Z,34.90
2018-09-27T15:30:04.836Z,35.40
2018-09-27T15:32:33.044Z,36.10
2018-09-27T15:35:01.303Z,36.60
2018-09-27T15:37:29.573Z,36.80
2018-09-27T15:39:57.975Z,37.30
2018-09-27T15:42:26.134Z,38.00
2018-09-27T15:44:54.333Z,38.30
2018-09-27T15:47:22.503Z,38.70
2018-09-27T15:49:50.696Z,39.20
2018-09-27T15:52:18.975Z,39.60
2018-09-27T15:54:47.157Z,39.80
2018-09-27T15:57:15.360Z,39.50
2018-09-27T15:59:43.584Z,39.60
2018-09-27T16:02:11.850Z,39.80
2018-09-27T16:04:40.045Z,40.10
2018-09-27T16:07:08.230Z,40.30
2018-09-27T16:09:36.490Z,40.50
2018-09-27T16:12:04.753Z,40.40
2018-09-27T16:14:32.960Z,40.80
2018-09-27T16:17:01.228Z,40.90
2018-09-27T16:19:29.399Z,41.00
2018-09-27T16:21:57.621Z,41.30
2018-09-27T16:24:25.831Z,41.60
2018-09-27T16:26:54.352Z,41.90
2018-09-27T16:29:22.551Z,42.00
2018-09-27T16:31:50.772Z,42.40
2018-09-27T16:34:19.056Z,42.60
2018-09-27T16:36:47.426Z,42.80
2018-09-27T16:39:15.635Z,42.90
2018-09-27T16:41:44.028Z,43.20
2018-09-27T16:44:12.158Z,43.50
2018-09-27T16:46:41.381Z,44.10
2018-09-27T16:49:09.704Z,45.40
2018-09-27T16:51:37.900Z,45.70
2018-09-27T16:54:06.100Z,46.10
2018-09-27T16:56:34.528Z,46.30
2018-09-27T16:59:02.745Z,46.80
2018-09-27T17:01:30.932Z,47.30
2018-09-27T17:03:59.130Z,48.00
2018-09-27T17:06:27.322Z,48.60
2018-09-27T17:08:55.503Z,49.20
2018-09-27T17:11:23.786Z,49.70
2018-09-27T17:13:52.020Z,49.80
2018-09-27T17:16:20.210Z,50.00
2018-09-27T17:18:48.514Z,50.20
2018-09-27T17:21:16.698Z,50.50
2018-09-27T17:23:44.981Z,50.70
2018-09-27T17:26:13.095Z,51.00
2018-09-27T17:28:41.385Z,51.20
2018-09-27T17:31:09.764Z,51.50
2018-09-27T17:33:37.968Z,51.50
2018-09-27T17:36:06.234Z,51.40
2018-09-27T17:38:34.460Z,51.70
2018-09-27T17:41:02.726Z,51.70
2018-09-27T17:43:30.950Z,52.00
2018-09-27T17:45:59.207Z,52.10
2018-09-27T17:48:27.376Z,52.00
2018-09-27T17:50:55.575Z,52.40
2018-09-27T17:53:23.960Z,52.80
2018-09-27T17:55:52.176Z,53.50
2018-09-27T17:58:20.366Z,53.90
2018-09-27T18:00:48.820Z,54.60
2018-09-27T18:03:17.057Z,55.40
2018-09-27T18:05:45.385Z,55.50
2018-09-27T18:08:13.598Z,55.70
2018-09-27T18:10:41.801Z,56.30
2018-09-27T18:13:10.111Z,56.70
2018-09-27T18:15:38.286Z,57.30
2018-09-27T18:18:06.519Z,57.80
2018-09-27T18:20:34.806Z,58.10
2018-09-27T18:23:03.084Z,58.30
2018-09-27T18:25:31.321Z,58.30
2018-09-27T18:27:59.567Z,58.50
2018-09-27T18:30:27.763Z,58.70
2018-09-27T18:32:56.072Z,58.80
2018-09-27T18:35:24.273Z,59.10
2018-09-27T18:37:52.542Z,59.10
2018-09-27T18:40:20.687Z,59.20
2018-09-27T18:42:48.942Z,59.50
2018-09-27T18:45:17.151Z,59.70
2018-09-27T18:47:45.346Z,60.20
2018-09-27T18:50:13.559Z,60.60
2018-09-27T18:52:41.806Z,60.90
2018-09-27T18:55:09.996Z,61.70
2018-09-27T18:57:38.214Z,62.10
2018-09-27T19:00:06.616Z,62.80
2018-09-27T19:02:35.000Z,63.30
2018-09-27T19:05:03.216Z,63.70
2018-09-27T19:07:31.412Z,64.30
2018-09-27T19:09:59.621Z,65.10
2018-09-27T19:12:27.812Z,65.90
2018-09-27T19:14:56.308Z,66.50
2018-09-27T19:17:24.529Z,67.20
2018-09-27T19:19:52.714Z,68.00
2018-09-27T19:22:20.927Z,69.20
2018-09-27T19:24:49.126Z,70.30
2018-09-27T19:27:17.314Z,71.10
2018-09-27T19:29:45.564Z,70.60
2018-09-27T19:32:13.752Z,70.30
2018-09-27T19:34:41.980Z,70.30
2018-09-27T19:37:10.171Z,70.60
2018-09-27T19:39:38.376Z,71.40
2018-09-27T19:42:06.569Z,72.20
2018-09-27T19:44:34.780Z,72.90
2018-09-27T19:47:02.993Z,73.40
2018-09-27T19:49:31.225Z,74.00
2018-09-27T19:51:59.452Z,74.80
2018-09-27T19:54:27.645Z,75.50
2018-09-27T19:56:55.844Z,76.70
2018-09-27T19:59:24.044Z,77.00
2018-09-27T20:01:52.255Z,77.30
2018-09-27T20:04:20.508Z,78.10
2018-09-27T20:06:48.660Z,78.10
2018-09-27T20:09:16.872Z,78.30
2018-09-27T20:11:45.079Z,79.80
2018-09-27T20:14:13.277Z,79.70
2018-09-27T20:16:41.767Z,80.50
2018-09-27T20:19:10.164Z,81.80
2018-09-27T20:21:38.765Z,83.10
2018-09-27T20:24:07.334Z,84.90
2018-09-27T20:26:35.524Z,85.90
2018-09-27T20:29:03.802Z,87.10
2018-09-27T20:31:32.010Z,88.90
2018-09-27T20:34:00.260Z,90.10
2018-09-27T20:36:28.568Z,90.60
2018-09-27T20:38:57.046Z,91.00
2018-09-27T20:41:25.273Z,91.30
2018-09-27T20:43:53.454Z,91.70
2018-09-27T20:46:21.646Z,92.50
2018-09-27T20:48:49.838Z,93.00
2018-09-27T20:51:18.065Z,93.40
2018-09-27T20:53:46.256Z,93.90
2018-09-27T20:56:14.460Z,94.30
2018-09-27T20:58:42.716Z,94.50
2018-09-27T21:01:10.912Z,94.90
2018-09-27T21:03:39.128Z,95.00
2018-09-27T21:06:07.592Z,95.30
2018-09-27T21:08:35.817Z,95.40
2018-09-27T21:11:04.001Z,95.60
2018-09-27T21:13:32.237Z,95.80
2018-09-27T21:16:00.462Z,96.00
2018-09-27T21:18:28.699Z,96.30
2018-09-27T21:20:56.927Z,96.50
2018-09-27T21:23:25.172Z,96.80
2018-09-27T21:25:53.416Z,97.30
2018-09-27T21:28:21.617Z,97.70
2018-09-27T21:30:49.815Z,98.30
2018-09-27T21:33:18.027Z,98.80
2018-09-27T21:35:46.240Z,99.10
2018-09-27T21:38:14.801Z,99.40
2018-09-27T21:40:42.985Z,99.60
2018-09-27T21:43:11.228Z,99.80
2018-09-27T21:45:39.416Z,99.90
2018-09-27T21:48:07.617Z,99.90
2018-09-27T21:50:35.823Z,99.90
2018-09-27T21:53:04.097Z,99.90
2018-09-27T21:55:32.373Z,99.90
2018-09-27T21:58:00.619Z,99.90
2018-09-27T22:00:28.821Z,99.90
2018-09-27T22:02:57.092Z,99.90
2018-09-27T22:05:25.314Z,99.90
2018-09-27T22:07:53.535Z,99.90
2018-09-27T22:10:21.725Z,99.90
2018-09-27T22:12:49.948Z,99.90
2018-09-27T22:15:18.113Z,99.90
2018-09-27T22:17:46.315Z,99.90
2018-09-27T22:20:14.525Z,99.90
2018-09-27T22:22:43.104Z,99.90
2018-09-27T22:25:11.386Z,99.90
2018-09-27T22:27:39.863Z,99.90
2018-09-27T22:30:08.546Z,99.90
2018-09-27T22:32:36.732Z,99.90
2018-09-27T22:35:05.008Z,99.90
2018-09-27T22:37:33.237Z,99.90
2018-09-27T22:40:01.443Z,99.90
2018-09-27T22:42:29.625Z,99.90
2018-09-27T22:44:57.831Z,99.90
2018-09-27T22:47:26.029Z,99.90
2018-09-27T22:49:54.262Z,99.90
2018-09-27T22:52:22.451Z,99.90
2018-09-27T22:54:50.715Z,99.90
2018-09-27T22:57:18.892Z,99.90
2018-09-27T22:59:47.109Z,99.90
2018-09-27T23:02:15.315Z,99.90
2018-09-27T23:04:43.506Z,99.90
2018-09-27T23:07:11.729Z,99.90
2018-09-27T23:09:39.955Z,99.90
2018-09-27T23:12:08.331Z,99.90
2018-09-27T23:14:36.538Z,99.90
2018-09-27T23:17:04.733Z,99.90
2018-09-27T23:19:32.942Z,99.90
2018-09-27T23:22:01.135Z,99.90
2018-09-27T23:24:29.377Z,99.90
2018-09-27T23:26:57.617Z,99.90
2018-09-27T23:29:25.824Z,99.90
2018-09-27T23:31:54.018Z,99.90
2018-09-27T23:34:22.231Z,99.90
2018-09-27T23:36:50.427Z,99.90
2018-09-27T23:39:18.637Z,99.90
2018-09-27T23:41:46.832Z,99.90
2018-09-27T23:44:15.100Z,99.90
2018-09-27T23:46:43.429Z,99.90
2018-09-27T23:49:11.687Z,99.90
2018-09-27T23:51:39.885Z,99.90
2018-09-27T23:54:08.169Z,99.90
2018-09-27T23:56:36.365Z,99.90
2018-09-27T23:59:04.580Z,99.90
